Time;durP1;ratioP1;P1;durP2;ratioP2;P2;SDS_P1;SDS_P2;PMS_P1;PMS_P2;Temp;Humidity;BMP_temperature;BMP_pressure;BME280_temperature;BME280_humidity;BME280_pressure;Samples;Min_cycle;Max_cycle;Signal;HPM_P1;HPM_P2
2023/01/22 00:01:11;;;;;;;41.50;26.30;;;0.10;99.90;;;;;;5092992;28;20040;-69
2023/01/22 00:03:38;;;;;;;38.45;25.40;;;0.00;99.90;;;;;;5101160;28;20028;-68
2023/01/22 00:06:04;;;;;;;39.42;27.17;;;-0.10;99.90;;;;;;5104140;28;20062;-69
2023/01/22 00:08:30;;;;;;;36.28;25.63;;;-0.10;99.90;;;;;;5089265;28;20135;-68
2023/01/22 00:10:56;;;;;;;49.08;27.70;;;-0.20;99.90;;;;;;5106756;28;20062;-68
2023/01/22 00:13:23;;;;;;;43.97;29.58;;;-0.20;99.90;;;;;;5102027;28;20036;-68
2023/01/22 00:15:49;;;;;;;44.03;28.75;;;-0.30;99.90;;;;;;5092085;28;20048;-68
2023/01/22 00:18:16;;;;;;;47.13;30.88;;;-0.30;99.90;;;;;;5106960;28;20043;-69
2023/01/22 00:20:46;;;;;;;52.92;31.55;;;-0.30;99.90;;;;;;5096927;28;20122;-68
2023/01/22 00:23:12;;;;;;;61.70;33.03;;;-0.30;99.90;;;;;;5108109;28;20429;-68
2023/01/22 00:25:38;;;;;;;53.00;30.45;;;-0.30;99.90;;;;;;5099299;28;20082;-68
2023/01/22 00:28:04;;;;;;;42.28;29.15;;;-0.30;99.90;;;;;;5109361;28;20060;-69
2023/01/22 00:30:30;;;;;;;51.80;30.85;;;-0.30;99.90;;;;;;5095106;28;20082;-68
2023/01/22 00:32:55;;;;;;;57.55;32.97;;;-0.30;99.90;;;;;;5102511;28;20031;-68
2023/01/22 00:35:21;;;;;;;49.55;32.72;;;-0.30;99.90;;;;;;5096228;28;20056;-68
2023/01/22 00:37:47;;;;;;;52.90;33.05;;;-0.30;99.90;;;;;;5107665;28;20104;-68
2023/01/22 00:40:14;;;;;;;51.92;31.73;;;-0.30;99.90;;;;;;5094688;28;20093;-69
2023/01/22 00:42:40;;;;;;;55.08;31.25;;;-0.40;99.90;;;;;;5111663;28;20043;-68
2023/01/22 00:45:06;;;;;;;48.67;32.78;;;-0.40;99.90;;;;;;5109129;28;20040;-69
2023/01/22 00:47:32;;;;;;;46.67;30.67;;;-0.50;99.90;;;;;;5098198;28;20550;-68
2023/01/22 00:49:58;;;;;;;54.92;33.67;;;-0.50;99.90;;;;;;5113176;28;20035;-68
2023/01/22 00:52:24;;;;;;;51.10;33.28;;;-0.50;99.90;;;;;;5098741;28;20040;-68
2023/01/22 00:54:49;;;;;;;55.72;33.55;;;-0.50;99.90;;;;;;5104263;28;20036;-68
2023/01/22 00:57:20;;;;;;;60.03;36.17;;;-0.60;99.90;;;;;;5105783;28;20117;-68
2023/01/22 00:59:46;;;;;;;51.47;33.75;;;-0.60;99.90;;;;;;5105525;28;20044;-68
2023/01/22 01:02:12;;;;;;;25.05;9.52;;;-0.60;99.90;;;;;;5096310;28;20504;-68
2023/01/22 01:04:38;;;;;;;56.92;33.03;;;-0.60;99.90;;;;;;5110183;28;20544;-68
2023/01/22 01:07:05;;;;;;;49.28;32.13;;;-0.60;99.90;;;;;;5099493;28;20084;-68
2023/01/22 01:09:31;;;;;;;58.13;32.70;;;-0.60;99.90;;;;;;5096958;28;20054;-68
2023/01/22 01:11:57;;;;;;;51.33;32.05;;;-0.60;99.90;;;;;;5100464;28;20101;-68
2023/01/22 01:14:23;;;;;;;50.72;31.85;;;-0.60;99.90;;;;;;5104469;28;20042;-68
2023/01/22 01:16:50;;;;;;;51.72;33.15;;;-0.60;99.90;;;;;;5099671;28;20048;-69
2023/01/22 01:19:21;;;;;;;68.45;31.90;;;-0.60;99.90;;;;;;5104392;28;20082;-68
2023/01/22 01:21:47;;;;;;;50.83;31.77;;;-0.60;99.90;;;;;;5109420;28;20043;-68
2023/01/22 01:24:14;;;;;;;44.20;30.48;;;-0.60;99.90;;;;;;5099494;28;20083;-68
2023/01/22 01:26:40;;;;;;;47.85;29.73;;;-0.60;99.90;;;;;;5100073;28;20158;-68
2023/01/22 01:29:08;;;;;;;43.85;29.15;;;-0.60;99.90;;;;;;5111447;28;20519;-69
2023/01/22 01:31:35;;;;;;;47.80;30.95;;;-0.60;99.90;;;;;;5097035;28;20409;-68
2023/01/22 01:34:01;;;;;;;48.75;30.50;;;-0.60;99.90;;;;;;5099074;28;20035;-69
2023/01/22 01:36:26;;;;;;;47.90;28.73;;;-0.70;99.90;;;;;;5078171;28;20106;-69
2023/01/22 01:38:53;;;;;;;44.95;27.58;;;-0.70;99.90;;;;;;5095326;28;20443;-68
2023/01/22 01:41:25;;;;;;;52.50;27.60;;;-0.70;99.90;;;;;;5106961;28;20782;-68
2023/01/22 01:44:11;;;;;;;42.25;26.83;;;-0.70;99.90;;;;;;5094363;28;20075;-68
2023/01/22 01:46:45;;;;;;;40.22;26.60;;;-0.60;99.90;;;;;;5099129;28;20119;-69
2023/01/22 01:49:25;;;;;;;41.65;27.17;;;-0.60;99.90;;;;;;5102999;28;20051;-69
2023/01/22 01:51:54;;;;;;;43.88;28.33;;;-0.50;99.90;;;;;;5089956;28;20051;-69
2023/01/22 01:54:20;;;;;;;40.25;25.98;;;-0.50;99.90;;;;;;5097414;28;20040;-69
2023/01/22 01:56:50;;;;;;;49.42;27.30;;;-0.40;99.90;;;;;;5102208;28;20534;-69
2023/01/22 01:59:18;;;;;;;41.90;26.35;;;-0.30;99.90;;;;;;5109676;27;20047;-69
2023/01/22 02:01:51;;;;;;;41.90;26.13;;;-0.30;99.90;;;;;;5097180;28;20040;-69
2023/01/22 02:04:18;;;;;;;39.35;26.45;;;-0.20;99.90;;;;;;5096510;27;20048;-69
2023/01/22 02:06:45;;;;;;;40.00;26.17;;;-0.10;99.90;;;;;;5110693;28;20039;-69
2023/01/22 02:09:10;;;;;;;35.88;22.50;;;0.00;99.90;;;;;;5109655;28;20083;-69
2023/01/22 02:11:38;;;;;;;35.50;21.30;;;0.00;99.90;;;;;;5107642;28;20042;-69
2023/01/22 02:14:08;;;;;;;32.00;20.65;;;0.10;99.90;;;;;;5106068;28;20046;-69
2023/01/22 02:16:34;;;;;;;29.88;20.17;;;0.20;99.90;;;;;;5104128;28;20036;-69
2023/01/22 02:19:01;;;;;;;28.95;17.55;;;0.30;99.90;;;;;;5104404;28;20495;-69
2023/01/22 02:21:29;;;;;;;29.58;18.55;;;0.30;99.90;;;;;;5095318;28;20128;-69
2023/01/22 02:23:55;;;;;;;28.42;17.77;;;0.30;99.90;;;;;;5100719;28;20062;-70
2023/01/22 02:26:20;;;;;;;28.50;19.73;;;0.30;99.90;;;;;;5105766;28;20039;-70
2023/01/22 02:28:46;;;;;;;29.27;19.30;;;0.40;99.90;;;;;;5079072;28;20044;-69
2023/01/22 02:31:12;;;;;;;25.05;18.02;;;0.40;99.90;;;;;;5086901;28;20059;-69
2023/01/22 02:33:37;;;;;;;31.83;18.15;;;0.40;99.90;;;;;;5109422;28;20400;-69
2023/01/22 02:36:03;;;;;;;28.33;19.90;;;0.40;99.90;;;;;;5107752;28;20043;-70
2023/01/22 02:38:29;;;;;;;30.48;19.00;;;0.40;99.90;;;;;;5110712;28;20051;-70
2023/01/22 02:40:55;;;;;;;26.00;17.80;;;0.40;99.90;;;;;;5108789;28;20156;-69
2023/01/22 02:43:20;;;;;;;28.15;17.38;;;0.50;99.90;;;;;;5109601;28;20056;-70
2023/01/22 02:45:46;;;;;;;32.78;18.10;;;0.50;99.90;;;;;;5108374;28;20451;-70
2023/01/22 02:48:12;;;;;;;30.08;19.45;;;0.50;99.90;;;;;;5101717;28;20131;-70
2023/01/22 02:50:37;;;;;;;27.23;17.60;;;0.50;99.90;;;;;;5100614;28;20044;-69
2023/01/22 02:53:03;;;;;;;22.67;16.15;;;0.50;99.90;;;;;;5105782;28;20047;-70
2023/01/22 02:55:29;;;;;;;24.35;17.73;;;0.50;99.90;;;;;;5110225;28;20043;-70
2023/01/22 02:57:55;;;;;;;22.67;15.00;;;0.60;99.90;;;;;;5105303;28;20040;-69
2023/01/22 03:00:20;;;;;;;5.10;2.53;;;0.60;99.90;;;;;;5085319;28;20867;-70
2023/01/22 03:02:46;;;;;;;22.33;14.93;;;0.50;99.90;;;;;;5108210;28;20058;-70
2023/01/22 03:05:12;;;;;;;19.83;15.38;;;0.60;99.90;;;;;;5109471;28;20654;-70
2023/01/22 03:07:46;;;;;;;23.58;16.08;;;0.60;99.90;;;;;;5108782;28;20036;-70
2023/01/22 03:10:17;;;;;;;23.98;16.60;;;0.60;99.90;;;;;;5110171;28;20043;-70
2023/01/22 03:21:15;;;;;;;34.13;14.15;;;0.60;99.90;;;;;;5104879;28;20389;-70
2023/01/22 03:23:48;;;;;;;19.98;13.75;;;0.60;99.90;;;;;;5106951;28;20079;-70
2023/01/22 03:26:15;;;;;;;18.30;13.57;;;0.60;99.90;;;;;;5109843;28;20127;-70
2023/01/22 03:28:40;;;;;;;22.65;15.75;;;0.60;99.90;;;;;;5109303;28;20032;-70
2023/01/22 03:31:06;;;;;;;16.10;12.13;;;0.60;99.90;;;;;;5107634;28;20051;-70
2023/01/22 03:33:32;;;;;;;19.45;14.38;;;0.60;99.90;;;;;;5107827;28;20475;-69
2023/01/22 03:36:03;;;;;;;17.27;12.98;;;0.60;99.90;;;;;;5106168;28;20054;-69
2023/01/22 03:38:29;;;;;;;20.40;14.95;;;0.60;99.90;;;;;;5108379;28;20044;-70
2023/01/22 03:41:07;;;;;;;22.10;12.50;;;0.60;99.90;;;;;;5100906;28;20476;-69
2023/01/22 03:43:33;;;;;;;19.77;14.20;;;0.60;99.90;;;;;;5099741;28;20416;-70
2023/01/22 03:46:19;;;;;;;14.93;12.48;;;0.60;99.90;;;;;;5099937;28;20523;-70
2023/01/22 03:48:50;;;;;;;20.17;13.10;;;0.60;99.90;;;;;;5095838;28;20056;-70
2023/01/22 03:51:16;;;;;;;22.63;13.27;;;0.60;99.90;;;;;;5097635;28;20087;-70
2023/01/22 03:53:43;;;;;;;18.45;12.35;;;0.60;99.90;;;;;;5103780;28;20497;-69
2023/01/22 03:56:20;;;;;;;19.00;14.50;;;0.60;99.90;;;;;;5104205;28;20100;-70
2023/01/22 03:58:47;;;;;;;20.80;13.38;;;0.60;99.90;;;;;;5098620;28;20090;-70
2023/01/22 04:01:15;;;;;;;21.90;13.35;;;0.60;99.90;;;;;;5102306;28;20100;-70
2023/01/22 04:03:41;;;;;;;16.13;13.45;;;0.60;99.90;;;;;;5104148;28;20054;-70
2023/01/22 04:06:09;;;;;;;16.00;12.48;;;0.60;99.90;;;;;;5101579;28;20093;-70
2023/01/22 04:08:35;;;;;;;21.33;13.32;;;0.60;99.90;;;;;;5103558;28;20706;-70
2023/01/22 04:11:02;;;;;;;16.88;12.88;;;0.60;99.90;;;;;;5098350;28;20492;-70
2023/01/22 04:13:30;;;;;;;4.75;3.10;;;0.60;99.90;;;;;;5097961;28;20039;-70
2023/01/22 04:15:56;;;;;;;21.00;13.05;;;0.60;99.90;;;;;;5105909;28;20044;-70
2023/01/22 04:18:22;;;;;;;16.20;12.85;;;0.60;99.90;;;;;;5096671;28;20040;-69
2023/01/22 04:20:48;;;;;;;17.15;12.30;;;0.60;99.90;;;;;;5110407;28;20046;-70
2023/01/22 04:23:15;;;;;;;30.27;13.40;;;0.60;99.90;;;;;;5092564;28;20051;-70
2023/01/22 04:25:41;;;;;;;16.83;12.95;;;0.60;99.90;;;;;;5098539;28;20490;-69
2023/01/22 04:28:09;;;;;;;15.43;13.13;;;0.60;99.90;;;;;;5101566;28;20055;-70
2023/01/22 04:30:36;;;;;;;16.17;12.32;;;0.60;99.90;;;;;;5101336;28;20044;-70
2023/01/22 04:33:03;;;;;;;19.58;14.13;;;0.60;99.90;;;;;;5099019;28;20103;-70
2023/01/22 04:35:29;;;;;;;16.20;12.98;;;0.60;99.90;;;;;;5096311;28;20488;-70
2023/01/22 04:37:55;;;;;;;17.75;13.55;;;0.60;99.90;;;;;;5100886;27;20036;-69
2023/01/22 04:40:21;;;;;;;17.48;13.68;;;0.60;99.90;;;;;;5092460;28;20052;-69
2023/01/22 04:42:47;;;;;;;14.57;13.00;;;0.50;99.90;;;;;;5101864;28;20061;-70
2023/01/22 04:45:13;;;;;;;18.67;13.52;;;0.60;99.90;;;;;;5106726;28;20039;-70
2023/01/22 04:47:43;;;;;;;16.27;12.48;;;0.50;99.90;;;;;;5094322;28;20385;-70
2023/01/22 04:50:14;;;;;;;17.35;13.15;;;0.50;99.90;;;;;;5091513;28;20040;-69
2023/01/22 04:52:40;;;;;;;17.83;13.20;;;0.50;99.90;;;;;;5102201;28;20052;-69
2023/01/22 04:55:08;;;;;;;13.98;12.32;;;0.50;99.90;;;;;;5099534;28;20128;-70
2023/01/22 04:57:33;;;;;;;22.13;13.87;;;0.50;99.90;;;;;;5111390;28;20408;-69
2023/01/22 04:59:59;;;;;;;19.35;13.98;;;0.50;99.90;;;;;;5100066;28;20281;-69
2023/01/22 05:02:25;;;;;;;15.80;12.10;;;0.50;99.90;;;;;;5106395;28;20493;-69
2023/01/22 05:04:50;;;;;;;16.27;13.45;;;0.40;99.90;;;;;;5112148;28;20123;-69
2023/01/22 05:07:16;;;;;;;19.08;13.38;;;0.50;99.90;;;;;;5105089;28;20054;-69
2023/01/22 05:09:42;;;;;;;18.65;13.43;;;0.50;99.90;;;;;;5110284;28;20488;-69
2023/01/22 05:12:07;;;;;;;21.30;13.93;;;0.40;99.90;;;;;;5103479;28;20039;-69
2023/01/22 05:14:33;;;;;;;16.65;12.40;;;0.40;99.90;;;;;;5098352;28;20036;-69
2023/01/22 05:16:59;;;;;;;15.98;13.27;;;0.40;99.90;;;;;;5107786;28;20520;-69
2023/01/22 05:19:24;;;;;;;14.80;13.02;;;0.50;99.90;;;;;;5110997;28;20039;-69
2023/01/22 05:21:50;;;;;;;21.08;13.60;;;0.50;99.90;;;;;;5111432;28;20040;-69
2023/01/22 05:24:17;;;;;;;20.10;15.20;;;0.40;99.90;;;;;;5110414;28;20482;-69
2023/01/22 05:26:43;;;;;;;16.55;13.32;;;0.50;99.90;;;;;;5107486;28;20040;-69
2023/01/22 05:29:09;;;;;;;17.40;12.30;;;0.40;99.90;;;;;;5103409;28;20046;-69
2023/01/22 05:31:35;;;;;;;20.38;11.77;;;0.40;99.90;;;;;;5108692;28;20047;-69
2023/01/22 05:34:01;;;;;;;16.83;12.23;;;0.40;99.90;;;;;;5110879;28;20054;-69
2023/01/22 05:36:27;;;;;;;21.00;13.70;;;0.40;99.90;;;;;;5111091;28;20047;-69
2023/01/22 05:38:52;;;;;;;17.55;12.48;;;0.40;99.90;;;;;;5103096;28;20057;-69
2023/01/22 05:41:18;;;;;;;16.15;13.02;;;0.40;99.90;;;;;;5077743;28;20048;-69
2023/01/22 05:43:44;;;;;;;17.58;12.82;;;0.40;99.90;;;;;;5103706;28;20040;-69
2023/01/22 05:46:09;;;;;;;15.13;12.15;;;0.40;99.90;;;;;;5109297;28;20062;-69
2023/01/22 05:48:36;;;;;;;17.83;14.15;;;0.40;99.90;;;;;;5103954;28;20128;-69
2023/01/22 05:51:06;;;;;;;21.38;13.18;;;0.40;99.90;;;;;;5110404;28;20412;-69
2023/01/22 05:53:33;;;;;;;20.08;14.70;;;0.50;99.90;;;;;;5102779;28;20043;-69
2023/01/22 05:56:03;;;;;;;20.80;13.50;;;0.40;99.90;;;;;;5110384;28;20043;-69
2023/01/22 05:58:30;;;;;;;21.95;13.32;;;0.40;99.90;;;;;;5092938;28;20048;-69
2023/01/22 06:00:57;;;;;;;20.38;14.63;;;0.50;99.90;;;;;;5100428;28;20441;-69
2023/01/22 06:03:23;;;;;;;20.20;14.73;;;0.40;99.90;;;;;;5095501;28;20453;-69
2023/01/22 06:06:02;;;;;;;17.60;14.27;;;0.50;99.90;;;;;;5109382;28;20096;-69
2023/01/22 06:08:28;;;;;;;18.45;13.95;;;0.40;99.90;;;;;;5093646;28;20048;-69
2023/01/22 06:11:00;;;;;;;19.20;14.45;;;0.40;99.90;;;;;;5108120;28;20113;-69
2023/01/22 06:13:27;;;;;;;18.08;14.30;;;0.40;99.90;;;;;;5094414;28;20051;-69
2023/01/22 06:15:52;;;;;;;4.78;3.78;;;0.40;99.90;;;;;;5091018;28;20119;-70
2023/01/22 06:18:19;;;;;;;16.55;14.73;;;0.40;99.90;;;;;;5103354;28;20610;-70
2023/01/22 06:20:46;;;;;;;20.60;15.50;;;0.40;99.90;;;;;;5108576;28;20757;-70
2023/01/22 06:23:12;;;;;;;22.90;15.23;;;0.40;99.90;;;;;;5104369;28;20413;-69
2023/01/22 06:25:37;;;;;;;23.15;15.35;;;0.40;99.90;;;;;;5080876;28;20052;-70
2023/01/22 06:28:03;;;;;;;19.58;15.80;;;0.40;99.90;;;;;;5099558;28;20056;-70
2023/01/22 06:30:29;;;;;;;22.95;16.15;;;0.40;99.90;;;;;;5101778;28;20039;-69
2023/01/22 06:32:54;;;;;;;22.13;16.25;;;0.50;99.90;;;;;;5096447;28;20086;-70
2023/01/22 06:35:21;;;;;;;17.38;15.48;;;0.50;99.90;;;;;;5098015;28;20060;-69
2023/01/22 06:37:47;;;;;;;19.65;15.73;;;0.40;99.90;;;;;;5094610;28;20136;-70
2023/01/22 06:40:12;;;;;;;20.48;16.25;;;0.40;99.90;;;;;;5090043;28;20489;-69
2023/01/22 06:42:38;;;;;;;18.80;16.30;;;0.40;99.90;;;;;;5092965;28;20046;-70
2023/01/22 06:45:04;;;;;;;16.90;14.95;;;0.40;99.90;;;;;;5082501;28;20075;-70
2023/01/22 06:47:31;;;;;;;23.65;18.02;;;0.50;99.90;;;;;;5089298;28;20078;-69
2023/01/22 06:49:57;;;;;;;26.88;17.13;;;0.50;99.90;;;;;;5095313;28;20040;-69
2023/01/22 06:52:23;;;;;;;21.52;15.88;;;0.40;99.90;;;;;;5102214;28;20058;-69
2023/01/22 06:54:48;;;;;;;21.98;16.60;;;0.50;99.90;;;;;;5090721;28;20043;-70
2023/01/22 06:57:14;;;;;;;17.42;15.13;;;0.50;99.90;;;;;;5100922;28;20066;-70
2023/01/22 06:59:40;;;;;;;19.50;16.90;;;0.40;99.90;;;;;;5087483;28;20531;-70
2023/01/22 07:02:05;;;;;;;19.88;16.27;;;0.50;99.90;;;;;;5102009;28;20519;-70
2023/01/22 07:04:31;;;;;;;20.58;16.65;;;0.50;99.90;;;;;;5101441;28;20036;-70
2023/01/22 07:06:57;;;;;;;21.67;16.92;;;0.50;99.90;;;;;;5107634;28;20048;-70
2023/01/22 07:09:22;;;;;;;21.95;18.10;;;0.40;99.90;;;;;;5098426;28;20533;-70
2023/01/22 07:11:48;;;;;;;10.98;4.30;;;0.50;99.90;;;;;;5105338;28;20044;-69
2023/01/22 07:14:14;;;;;;;22.60;18.15;;;0.40;99.90;;;;;;5105093;28;20048;-70
2023/01/22 07:16:40;;;;;;;21.42;18.75;;;0.40;99.90;;;;;;5101715;28;20043;-70
2023/01/22 07:19:05;;;;;;;22.05;18.73;;;0.50;99.90;;;;;;5108037;28;20040;-69
2023/01/22 07:21:31;;;;;;;22.98;19.17;;;0.50;99.90;;;;;;5105584;28;20046;-70
2023/01/22 07:23:57;;;;;;;22.00;17.52;;;0.40;99.90;;;;;;5091409;28;20047;-70
2023/01/22 07:26:22;;;;;;;21.30;18.90;;;0.50;99.90;;;;;;5095580;28;20043;-70
2023/01/22 07:28:48;;;;;;;23.17;18.73;;;0.50;99.90;;;;;;5105908;28;20050;-70
2023/01/22 07:31:15;;;;;;;25.63;17.95;;;0.50;99.90;;;;;;5101934;28;20042;-70
2023/01/22 07:33:40;;;;;;;25.33;18.42;;;0.50;99.90;;;;;;5100300;28;20047;-70
2023/01/22 07:36:06;;;;;;;24.90;18.02;;;0.50;99.90;;;;;;5105973;28;20062;-70
2023/01/22 07:38:32;;;;;;;20.80;16.33;;;0.40;99.90;;;;;;5109053;28;20058;-70
2023/01/22 07:41:06;;;;;;;20.30;17.33;;;0.40;99.90;;;;;;5101061;28;20044;-70
2023/01/22 07:43:32;;;;;;;21.23;17.70;;;0.50;99.90;;;;;;5088458;28;20492;-69
2023/01/22 07:46:05;;;;;;;21.02;16.95;;;0.50;99.90;;;;;;5092446;28;20052;-70
2023/01/22 07:48:31;;;;;;;24.85;18.00;;;0.40;99.90;;;;;;5095252;28;20039;-69
2023/01/22 07:51:01;;;;;;;23.50;17.63;;;0.40;99.90;;;;;;5105050;28;20054;-69
2023/01/22 07:53:27;;;;;;;22.92;18.15;;;0.50;99.90;;;;;;5106410;28;20054;-70
2023/01/22 07:55:53;;;;;;;23.17;17.60;;;0.50;99.90;;;;;;5098610;28;20389;-69
2023/01/22 07:58:19;;;;;;;26.13;17.58;;;0.50;99.90;;;;;;5101974;28;20048;-69
2023/01/22 08:00:45;;;;;;;24.05;19.65;;;0.50;99.90;;;;;;5095996;28;20147;-70
2023/01/22 08:03:13;;;;;;;21.67;16.80;;;0.50;99.90;;;;;;5105910;28;20146;-70
2023/01/22 08:05:42;;;;;;;19.70;16.67;;;0.50;99.90;;;;;;5105325;28;20052;-70
2023/01/22 08:08:19;;;;;;;19.88;16.60;;;0.50;99.90;;;;;;5096237;28;20058;-70
2023/01/22 08:10:45;;;;;;;20.38;17.75;;;0.50;99.90;;;;;;5093694;28;20040;-70
2023/01/22 08:13:11;;;;;;;19.05;16.70;;;0.50;99.90;;;;;;5099035;28;20071;-70
2023/01/22 08:15:37;;;;;;;21.85;16.83;;;0.50;99.90;;;;;;5089566;28;20535;-70
2023/01/22 08:18:06;;;;;;;24.58;17.02;;;0.50;99.90;;;;;;5102424;28;20088;-70
2023/01/22 08:20:32;;;;;;;21.42;17.33;;;0.50;99.90;;;;;;5099965;28;20400;-70
2023/01/22 08:22:58;;;;;;;27.02;17.35;;;0.50;99.90;;;;;;5102983;28;20038;-70
2023/01/22 08:25:25;;;;;;;21.23;16.15;;;0.50;99.90;;;;;;5101050;28;20131;-70
2023/01/22 08:27:51;;;;;;;21.23;16.35;;;0.50;99.90;;;;;;5108627;28;20070;-70
2023/01/22 08:30:17;;;;;;;21.00;16.40;;;0.50;99.90;;;;;;5097361;28;20496;-70
2023/01/22 08:32:44;;;;;;;20.75;16.80;;;0.50;99.90;;;;;;5082163;28;20472;-70
2023/01/22 08:35:11;;;;;;;21.50;17.60;;;0.60;99.90;;;;;;5096721;28;20060;-71
2023/01/22 08:37:37;;;;;;;8.23;4.18;;;0.60;99.90;;;;;;5099690;28;20052;-71
2023/01/22 08:40:04;;;;;;;28.88;18.17;;;0.50;99.90;;;;;;5103140;28;20047;-71
2023/01/22 08:42:30;;;;;;;21.67;16.42;;;0.50;99.90;;;;;;5091865;28;20056;-71
2023/01/22 08:44:55;;;;;;;25.33;18.75;;;0.60;99.90;;;;;;5099515;28;20439;-71
2023/01/22 08:47:21;;;;;;;23.13;19.55;;;0.60;99.90;;;;;;5102915;28;20121;-71
2023/01/22 08:49:47;;;;;;;26.05;20.30;;;0.60;99.90;;;;;;5102534;28;20043;-71
2023/01/22 08:52:12;;;;;;;28.50;20.98;;;0.60;99.90;;;;;;5088951;28;20052;-71
2023/01/22 08:54:38;;;;;;;21.15;18.85;;;0.60;99.90;;;;;;5103031;28;20382;-72
2023/01/22 08:57:04;;;;;;;23.42;18.17;;;0.60;99.90;;;;;;5108493;28;20511;-72
2023/01/22 08:59:29;;;;;;;26.13;20.08;;;0.60;99.90;;;;;;5108332;28;20084;-72
2023/01/22 09:01:57;;;;;;;22.98;19.42;;;0.70;99.90;;;;;;5106038;28;20174;-72
2023/01/22 09:04:23;;;;;;;25.87;19.77;;;0.70;99.90;;;;;;5100576;28;20520;-72
2023/01/22 09:06:48;;;;;;;22.50;18.58;;;0.70;99.90;;;;;;5094368;28;20121;-72
2023/01/22 09:09:14;;;;;;;24.58;19.30;;;0.70;99.90;;;;;;5100488;28;20122;-72
2023/01/22 09:11:40;;;;;;;7.25;4.03;;;0.70;99.90;;;;;;5103917;28;20036;-72
2023/01/22 09:14:07;;;;;;;23.67;17.23;;;0.80;99.90;;;;;;5109157;28;20055;-72
2023/01/22 09:16:33;;;;;;;26.45;18.15;;;0.80;99.90;;;;;;5102789;28;20048;-71
2023/01/22 09:18:59;;;;;;;21.58;17.33;;;0.80;99.90;;;;;;5097217;28;20039;-71
2023/01/22 09:21:24;;;;;;;22.90;18.38;;;0.90;99.90;;;;;;5105826;28;20051;-70
2023/01/22 09:23:50;;;;;;;26.85;20.23;;;0.90;99.90;;;;;;5103813;28;20036;-70
2023/01/22 09:26:15;;;;;;;27.33;20.50;;;0.90;99.90;;;;;;5108879;28;20085;-70
2023/01/22 09:28:41;;;;;;;30.50;19.02;;;0.90;99.90;;;;;;5102759;28;20032;-69
2023/01/22 09:31:11;;;;;;;25.42;19.58;;;0.90;99.90;;;;;;5098664;28;20035;-69
2023/01/22 09:33:36;;;;;;;25.52;18.38;;;0.90;99.90;;;;;;5107323;28;20051;-69
2023/01/22 09:36:09;;;;;;;24.98;18.98;;;0.90;99.90;;;;;;5096322;28;20048;-69
2023/01/22 09:38:34;;;;;;;28.33;18.45;;;0.90;99.90;;;;;;5104899;28;20043;-68
2023/01/22 09:41:06;;;;;;;28.35;17.70;;;1.00;99.90;;;;;;5103651;28;20043;-69
2023/01/22 09:43:44;;;;;;;26.55;19.85;;;1.00;99.90;;;;;;5101213;28;20126;-69
2023/01/22 09:46:34;;;;;;;22.67;19.55;;;1.00;99.90;;;;;;5110197;28;20125;-69
2023/01/22 09:49:07;;;;;;;25.42;20.95;;;1.00;99.90;;;;;;5101559;28;20110;-68
2023/01/22 09:51:34;;;;;;;29.23;22.00;;;1.00;99.90;;;;;;5105558;28;20032;-68
2023/01/22 09:54:03;;;;;;;26.48;21.00;;;1.10;99.90;;;;;;5096668;27;20455;-68
2023/01/22 09:56:38;;;;;;;24.70;20.63;;;1.00;99.90;;;;;;5108209;28;20054;-68
2023/01/22 09:59:06;;;;;;;27.83;20.35;;;1.10;99.90;;;;;;5092489;28;20066;-68
2023/01/22 10:01:32;;;;;;;31.45;19.08;;;1.10;99.90;;;;;;5103739;28;20043;-68
2023/01/22 10:04:12;;;;;;;23.95;19.60;;;1.10;99.90;;;;;;5095175;28;20158;-68
2023/01/22 10:06:42;;;;;;;25.85;20.13;;;1.10;99.90;;;;;;5104964;28;20086;-69
2023/01/22 10:09:12;;;;;;;27.77;20.55;;;1.20;99.90;;;;;;5101821;28;20040;-68
2023/01/22 10:11:39;;;;;;;25.90;21.08;;;1.20;99.90;;;;;;5100446;28;20046;-69
2023/01/22 10:14:08;;;;;;;26.65;20.45;;;1.20;99.90;;;;;;5104135;28;20051;-68
2023/01/22 10:16:34;;;;;;;25.30;20.75;;;1.30;99.90;;;;;;5100258;28;20058;-69
2023/01/22 10:19:26;;;;;;;24.85;21.00;;;1.30;99.90;;;;;;5089640;28;20040;-69
2023/01/22 10:22:10;;;;;;;8.40;6.65;;;1.40;99.90;;;;;;5100590;28;20050;-69
2023/01/22 10:24:36;;;;;;;29.88;21.15;;;1.30;99.90;;;;;;5101614;28;20047;-69
2023/01/22 10:27:15;;;;;;;25.98;18.92;;;1.30;99.90;;;;;;5100809;28;20055;-69
2023/01/22 10:29:44;;;;;;;27.55;21.05;;;1.40;99.90;;;;;;5099165;28;20035;-68
2023/01/22 10:32:21;;;;;;;23.15;18.45;;;1.40;99.90;;;;;;5099174;28;20052;-69
2023/01/22 10:35:06;;;;;;;22.50;19.80;;;1.40;99.90;;;;;;5089562;28;20052;-69
2023/01/22 10:37:49;;;;;;;21.58;18.75;;;1.50;99.90;;;;;;5098551;28;20063;-68
2023/01/22 10:40:45;;;;;;;25.23;19.25;;;1.50;99.90;;;;;;5108843;28;20032;-69
2023/01/22 10:43:16;;;;;;;25.90;19.23;;;1.50;99.90;;;;;;5103796;28;20065;-69
2023/01/22 10:45:53;;;;;;;23.15;18.98;;;1.50;99.90;;;;;;5108997;28;20039;-68
2023/01/22 10:48:19;;;;;;;26.67;19.95;;;1.50;99.90;;;;;;5098991;28;20043;-68
2023/01/22 10:50:45;;;;;;;30.17;20.02;;;1.60;99.90;;;;;;5108426;28;20465;-68
2023/01/22 10:53:25;;;;;;;28.10;19.58;;;1.60;99.90;;;;;;5106548;28;20082;-69
2023/01/22 10:55:58;;;;;;;25.48;19.17;;;1.60;99.90;;;;;;5105856;28;20057;-69
2023/01/22 10:58:26;;;;;;;21.88;18.50;;;1.60;99.90;;;;;;5107544;28;20101;-69
2023/01/22 11:00:57;;;;;;;;;;;1.70;99.90;;;;;;5103814;28;20054;-69
2023/01/22 11:03:32;;;;;;;11.25;6.93;;;1.70;99.90;;;;;;5101231;28;19980;-69
2023/01/22 11:06:16;;;;;;;21.67;18.05;;;1.60;99.90;;;;;;5100594;28;20092;-69
2023/01/22 11:08:59;;;;;;;21.83;17.50;;;1.70;99.90;;;;;;5104457;28;20092;-68
2023/01/22 11:11:33;;;;;;;20.33;16.70;;;1.70;99.90;;;;;;5099718;28;20122;-69
2023/01/22 11:14:10;;;;;;;23.20;18.60;;;1.70;99.90;;;;;;5104394;28;20744;-69
2023/01/22 11:16:39;;;;;;;28.65;18.73;;;1.80;99.90;;;;;;5093839;28;20036;-69
2023/01/22 11:19:20;;;;;;;25.42;18.45;;;1.80;99.90;;;;;;5099970;28;20083;-69
2023/01/22 11:21:53;;;;;;;24.25;18.92;;;1.80;99.90;;;;;;5106172;28;20075;-69
2023/01/22 11:24:26;;;;;;;22.88;18.30;;;1.80;99.90;;;;;;5106103;28;20039;-69
2023/01/22 11:27:11;;;;;;;29.30;19.27;;;1.80;99.90;;;;;;5102682;28;20042;-69
2023/01/22 11:30:35;;;;;;;24.98;18.90;;;1.80;99.90;;;;;;5097644;28;20617;-69
2023/01/22 11:33:13;;;;;;;24.23;18.42;;;1.90;99.90;;;;;;5024007;28;20041;-68
2023/01/22 11:35:52;;;;;;;25.60;20.20;;;1.80;99.90;;;;;;5024862;28;20045;-69
2023/01/22 11:39:01;;;;;;;25.00;19.17;;;1.80;99.90;;;;;;5074070;28;20425;-69
2023/01/22 11:41:32;;;;;;;24.45;20.00;;;1.90;99.90;;;;;;5076170;28;20113;-69
2023/01/22 11:44:17;;;;;;;22.70;18.42;;;1.80;99.90;;;;;;5104207;28;20079;-68
2023/01/22 11:46:53;;;;;;;25.00;18.35;;;1.80;99.90;;;;;;5101277;28;20047;-69
2023/01/22 11:49:24;;;;;;;25.02;20.38;;;1.90;99.90;;;;;;5070501;28;20545;-69
2023/01/22 11:52:11;;;;;;;24.98;18.98;;;1.90;99.90;;;;;;5089254;28;20083;-68
2023/01/22 11:55:00;;;;;;;24.88;21.48;;;1.90;99.90;;;;;;5097321;28;20665;-69
2023/01/22 11:57:45;;;;;;;27.02;20.20;;;1.90;99.90;;;;;;5102207;28;20054;-69
2023/01/22 12:00:35;;;;;;;24.35;18.95;;;1.90;99.90;;;;;;5108536;28;20051;-69
2023/01/22 12:03:06;;;;;;;22.60;19.95;;;1.90;99.90;;;;;;5103913;28;20054;-69
2023/01/22 12:05:56;;;;;;;23.48;19.35;;;1.90;99.90;;;;;;5094391;28;20047;-69
2023/01/22 12:08:37;;;;;;;21.70;19.10;;;1.90;99.90;;;;;;5108254;28;20047;-69
2023/01/22 12:11:28;;;;;;;30.40;19.38;;;1.90;99.90;;;;;;5104960;28;20075;-69
2023/01/22 12:14:18;;;;;;;24.20;20.25;;;1.90;99.90;;;;;;5101761;28;20511;-68
2023/01/22 12:17:26;;;;;;;24.23;19.35;;;1.90;99.90;;;;;;5100073;28;20059;-69
2023/01/22 12:20:18;;;;;;;17.88;6.47;;;2.00;99.90;;;;;;5104332;28;20048;-69
2023/01/22 12:22:52;;;;;;;22.00;17.73;;;1.90;99.90;;;;;;5096153;28;20413;-69
2023/01/22 12:25:38;;;;;;;22.95;18.40;;;2.00;99.90;;;;;;5087442;28;20044;-68
2023/01/22 12:28:27;;;;;;;23.23;18.95;;;2.00;99.90;;;;;;5094759;28;20082;-69
2023/01/22 12:31:02;;;;;;;26.23;19.05;;;1.90;99.90;;;;;;5101316;28;20059;-69
2023/01/22 12:33:33;;;;;;;22.13;18.08;;;1.90;99.90;;;;;;5101326;28;20160;-69
2023/01/22 12:36:01;;;;;;;9.43;5.85;;;1.90;99.90;;;;;;5106180;28;20067;-69
2023/01/22 12:38:41;;;;;;;28.63;18.25;;;1.90;99.90;;;;;;5110265;28;20048;-69
2023/01/22 12:41:28;;;;;;;26.50;18.75;;;1.90;99.90;;;;;;5092018;28;20043;-69
2023/01/22 12:44:04;;;;;;;23.80;18.27;;;1.90;99.90;;;;;;5094994;28;20452;-69
2023/01/22 12:47:05;;;;;;;21.10;17.27;;;1.90;99.90;;;;;;5097922;28;20086;-69
2023/01/22 12:49:30;;;;;;;22.15;18.13;;;1.90;99.90;;;;;;5098134;28;20146;-69
2023/01/22 12:51:59;;;;;;;22.42;17.67;;;2.00;99.90;;;;;;5102753;28;20600;-68
2023/01/22 12:54:24;;;;;;;20.67;16.13;;;1.90;99.90;;;;;;5090937;28;20032;-68
2023/01/22 12:56:56;;;;;;;19.63;16.13;;;1.90;99.90;;;;;;5095646;28;20101;-69